sensor_id;sensor_type;location;lat;lon;timestamp;pressure;altitude;pressure_sealevel;temperature;humidity
64687;BME280;51113;53.646;-113.674;2024-03-06T00:00:32;93714.34;;;-20.07;70.25
64687;BME280;51113;53.646;-113.674;2024-03-06T00:03:01;93716.09;;;-20.09;70.60
64687;BME280;51113;53.646;-113.674;2024-03-06T00:05:30;93714.41;;;-20.09;71.88
64687;BME280;51113;53.646;-113.674;2024-03-06T00:07:58;93708.13;;;-20.14;72.05
64687;BME280;51113;53.646;-113.674;2024-03-06T00:10:29;93701.41;;;-20.28;72.58
64687;BME280;51113;53.646;-113.674;2024-03-06T00:12:57;93688.84;;;-20.39;73.21
64687;BME280;51113;53.646;-113.674;2024-03-06T00:15:26;93695.84;;;-20.32;73.62
64687;BME280;51113;53.646;-113.674;2024-03-06T00:17:55;93701.97;;;-20.23;73.75
64687;BME280;51113;53.646;-113.674;2024-03-06T00:20:24;93702.22;;;-20.27;74.28
64687;BME280;51113;53.646;-113.674;2024-03-06T00:22:53;93690.50;;;-20.40;74.18
64687;BME280;51113;53.646;-113.674;2024-03-06T00:25:22;93701.97;;;-20.39;74.50
64687;BME280;51113;53.646;-113.674;2024-03-06T00:27:51;93651.84;;;-20.72;74.96
64687;BME280;51113;53.646;-113.674;2024-03-06T00:30:19;93700.19;;;-20.37;75.38
64687;BME280;51113;53.646;-113.674;2024-03-06T00:32:48;93698.59;;;-20.38;75.64
64687;BME280;51113;53.646;-113.674;2024-03-06T00:35:17;93698.88;;;-20.42;75.60
64687;BME280;51113;53.646;-113.674;2024-03-06T00:37:46;93700.69;;;-20.46;75.88
64687;BME280;51113;53.646;-113.674;2024-03-06T00:40:14;93693.59;;;-20.52;76.06
64687;BME280;51113;53.646;-113.674;2024-03-06T00:42:43;93691.28;;;-20.55;76.70
64687;BME280;51113;53.646;-113.674;2024-03-06T00:45:12;93687.44;;;-20.60;77.00
64687;BME280;51113;53.646;-113.674;2024-03-06T00:47:40;93693.09;;;-20.58;77.24
64687;BME280;51113;53.646;-113.674;2024-03-06T00:50:10;93690.94;;;-20.65;77.43
64687;BME280;51113;53.646;-113.674;2024-03-06T00:52:39;93692.75;;;-20.68;77.92
64687;BME280;51113;53.646;-113.674;2024-03-06T00:55:09;93700.75;;;-20.80;78.00
64687;BME280;51113;53.646;-113.674;2024-03-06T00:57:38;93694.09;;;-20.96;77.68
64687;BME280;51113;53.646;-113.674;2024-03-06T01:00:07;93697.19;;;-20.92;78.28
64687;BME280;51113;53.646;-113.674;2024-03-06T01:02:39;93686.63;;;-20.94;77.91
64687;BME280;51113;53.646;-113.674;2024-03-06T01:05:08;93689.88;;;-21.11;77.47
64687;BME280;51113;53.646;-113.674;2024-03-06T01:07:40;93693.22;;;-20.94;77.68
64687;BME280;51113;53.646;-113.674;2024-03-06T01:10:09;93687.28;;;-21.08;77.96
64687;BME280;51113;53.646;-113.674;2024-03-06T01:12:37;93692.94;;;-21.06;77.00
64687;BME280;51113;53.646;-113.674;2024-03-06T01:15:07;93697.03;;;-21.22;77.37
64687;BME280;51113;53.646;-113.674;2024-03-06T01:17:36;93688.72;;;-21.21;77.88
64687;BME280;51113;53.646;-113.674;2024-03-06T01:20:05;93691.91;;;-21.02;77.66
64687;BME280;51113;53.646;-113.674;2024-03-06T01:22:35;93690.75;;;-21.12;77.42
64687;BME280;51113;53.646;-113.674;2024-03-06T01:25:04;93695.84;;;-21.15;77.27
64687;BME280;51113;53.646;-113.674;2024-03-06T01:27:33;93695.72;;;-21.29;76.46
64687;BME280;51113;53.646;-113.674;2024-03-06T01:30:02;93704.84;;;-21.67;77.35
64687;BME280;51113;53.646;-113.674;2024-03-06T01:32:31;93710.25;;;-21.78;77.91
64687;BME280;51113;53.646;-113.674;2024-03-06T01:35:01;93705.44;;;-21.62;78.40
64687;BME280;51113;53.646;-113.674;2024-03-06T01:37:30;93708.66;;;-21.43;78.24
64687;BME280;51113;53.646;-113.674;2024-03-06T01:39:59;93707.28;;;-21.48;78.35
64687;BME280;51113;53.646;-113.674;2024-03-06T01:42:27;93714.22;;;-21.56;78.33
64687;BME280;51113;53.646;-113.674;2024-03-06T01:44:57;93700.69;;;-21.84;77.38
64687;BME280;51113;53.646;-113.674;2024-03-06T01:47:26;93710.06;;;-21.73;78.61
64687;BME280;51113;53.646;-113.674;2024-03-06T01:49:55;93726.81;;;-22.17;78.08
64687;BME280;51113;53.646;-113.674;2024-03-06T01:52:24;93720.25;;;-22.56;79.15
64687;BME280;51113;53.646;-113.674;2024-03-06T01:54:53;93721.50;;;-22.66;80.24
64687;BME280;51113;53.646;-113.674;2024-03-06T01:57:22;93726.25;;;-22.82;80.40
64687;BME280;51113;53.646;-113.674;2024-03-06T01:59:51;93727.56;;;-22.93;80.50
64687;BME280;51113;53.646;-113.674;2024-03-06T02:02:20;93736.84;;;-23.00;81.03
64687;BME280;51113;53.646;-113.674;2024-03-06T02:04:49;93718.09;;;-23.03;81.76
64687;BME280;51113;53.646;-113.674;2024-03-06T02:07:19;93729.72;;;-23.06;81.20
64687;BME280;51113;53.646;-113.674;2024-03-06T02:09:48;93735.28;;;-23.03;80.76
64687;BME280;51113;53.646;-113.674;2024-03-06T02:12:17;93729.66;;;-23.05;81.54
64687;BME280;51113;53.646;-113.674;2024-03-06T02:14:46;93738.72;;;-23.07;81.10
64687;BME280;51113;53.646;-113.674;2024-03-06T02:17:15;93740.56;;;-23.12;81.51
64687;BME280;51113;53.646;-113.674;2024-03-06T02:19:44;93740.00;;;-23.18;81.38
64687;BME280;51113;53.646;-113.674;2024-03-06T02:22:13;93717.34;;;-23.25;81.62
64687;BME280;51113;53.646;-113.674;2024-03-06T02:24:45;93733.75;;;-23.25;81.23
64687;BME280;51113;53.646;-113.674;2024-03-06T02:27:14;93740.72;;;-23.37;81.55
64687;BME280;51113;53.646;-113.674;2024-03-06T02:29:44;93729.34;;;-23.59;81.54
64687;BME280;51113;53.646;-113.674;2024-03-06T02:32:13;93737.06;;;-23.90;81.33
64687;BME280;51113;53.646;-113.674;2024-03-06T02:34:42;93736.16;;;-23.88;81.77
64687;BME280;51113;53.646;-113.674;2024-03-06T02:37:11;93745.78;;;-24.05;82.08
64687;BME280;51113;53.646;-113.674;2024-03-06T02:39:39;93751.09;;;-24.17;82.46
64687;BME280;51113;53.646;-113.674;2024-03-06T02:42:08;93744.97;;;-24.28;82.12
64687;BME280;51113;53.646;-113.674;2024-03-06T02:44:37;93739.06;;;-24.23;83.00
64687;BME280;51113;53.646;-113.674;2024-03-06T02:47:06;93753.31;;;-24.33;82.81
64687;BME280;51113;53.646;-113.674;2024-03-06T02:49:34;93737.56;;;-24.49;82.65
64687;BME280;51113;53.646;-113.674;2024-03-06T02:52:03;93741.66;;;-24.50;83.33
64687;BME280;51113;53.646;-113.674;2024-03-06T02:54:32;93751.66;;;-24.56;82.96
64687;BME280;51113;53.646;-113.674;2024-03-06T02:57:01;93735.78;;;-24.69;83.19
64687;BME280;51113;53.646;-113.674;2024-03-06T02:59:29;93751.81;;;-24.61;83.67
64687;BME280;51113;53.646;-113.674;2024-03-06T03:01:58;93740.56;;;-24.66;83.68
64687;BME280;51113;53.646;-113.674;2024-03-06T03:04:28;93744.41;;;-24.59;84.00
64687;BME280;51113;53.646;-113.674;2024-03-06T03:06:57;93744.69;;;-24.67;84.01
64687;BME280;51113;53.646;-113.674;2024-03-06T03:09:26;93750.78;;;-24.78;83.51
64687;BME280;51113;53.646;-113.674;2024-03-06T03:11:55;93753.28;;;-24.80;83.60
64687;BME280;51113;53.646;-113.674;2024-03-06T03:14:23;93745.09;;;-24.79;83.92
64687;BME280;51113;53.646;-113.674;2024-03-06T03:16:51;93755.28;;;-24.91;83.14
64687;BME280;51113;53.646;-113.674;2024-03-06T03:19:21;93750.34;;;-24.89;83.46
64687;BME280;51113;53.646;-113.674;2024-03-06T03:21:50;93752.84;;;-24.91;83.92
64687;BME280;51113;53.646;-113.674;2024-03-06T03:24:19;93747.03;;;-24.88;84.25
64687;BME280;51113;53.646;-113.674;2024-03-06T03:26:49;93751.88;;;-24.87;84.73
64687;BME280;51113;53.646;-113.674;2024-03-06T03:29:18;93753.47;;;-24.86;84.91
64687;BME280;51113;53.646;-113.674;2024-03-06T03:31:49;93750.25;;;-24.86;84.71
64687;BME280;51113;53.646;-113.674;2024-03-06T03:34:17;93755.97;;;-24.87;84.54
64687;BME280;51113;53.646;-113.674;2024-03-06T03:36:46;93752.75;;;-24.88;84.60
64687;BME280;51113;53.646;-113.674;2024-03-06T03:39:16;93753.75;;;-24.94;84.15
64687;BME280;51113;53.646;-113.674;2024-03-06T03:41:48;93744.00;;;-24.95;83.68
64687;BME280;51113;53.646;-113.674;2024-03-06T03:44:18;93759.47;;;-24.95;83.68
64687;BME280;51113;53.646;-113.674;2024-03-06T03:46:50;93750.78;;;-25.02;84.01
64687;BME280;51113;53.646;-113.674;2024-03-06T03:49:19;93752.75;;;-25.13;83.69
64687;BME280;51113;53.646;-113.674;2024-03-06T03:51:47;93754.69;;;-25.22;83.03
64687;BME280;51113;53.646;-113.674;2024-03-06T03:54:16;93758.66;;;-25.18;83.55
64687;BME280;51113;53.646;-113.674;2024-03-06T03:56:45;93748.91;;;-25.20;84.04
64687;BME280;51113;53.646;-113.674;2024-03-06T03:59:13;93759.63;;;-25.24;83.78
64687;BME280;51113;53.646;-113.674;2024-03-06T04:01:45;93757.66;;;-25.13;84.37
64687;BME280;51113;53.646;-113.674;2024-03-06T04:04:15;93755.25;;;-25.14;85.02
64687;BME280;51113;53.646;-113.674;2024-03-06T04:06:43;93755.84;;;-25.08;85.05
64687;BME280;51113;53.646;-113.674;2024-03-06T04:09:13;93758.59;;;-25.17;85.09
64687;BME280;51113;53.646;-113.674;2024-03-06T04:11:43;93771.94;;;-25.26;84.47
64687;BME280;51113;53.646;-113.674;2024-03-06T04:14:11;93769.91;;;-25.39;84.20
64687;BME280;51113;53.646;-113.674;2024-03-06T04:16:40;93768.44;;;-25.45;84.20
64687;BME280;51113;53.646;-113.674;2024-03-06T04:19:09;93768.69;;;-25.52;84.49
64687;BME280;51113;53.646;-113.674;2024-03-06T04:21:45;93766.19;;;-25.51;85.03
64687;BME280;51113;53.646;-113.674;2024-03-06T04:24:14;93775.63;;;-25.65;84.28
64687;BME280;51113;53.646;-113.674;2024-03-06T04:26:43;93778.09;;;-25.67;84.24
64687;BME280;51113;53.646;-113.674;2024-03-06T04:29:11;93777.53;;;-25.75;84.34
64687;BME280;51113;53.646;-113.674;2024-03-06T04:31:40;93778.38;;;-25.76;84.34
64687;BME280;51113;53.646;-113.674;2024-03-06T04:34:09;93777.78;;;-25.84;83.84
64687;BME280;51113;53.646;-113.674;2024-03-06T04:36:38;93785.78;;;-25.79;84.02
64687;BME280;51113;53.646;-113.674;2024-03-06T04:39:06;93784.94;;;-25.78;84.38
64687;BME280;51113;53.646;-113.674;2024-03-06T04:41:35;93776.78;;;-25.77;84.43
64687;BME280;51113;53.646;-113.674;2024-03-06T04:44:04;93767.31;;;-25.87;83.97
64687;BME280;51113;53.646;-113.674;2024-03-06T04:46:33;93779.47;;;-25.86;83.97
64687;BME280;51113;53.646;-113.674;2024-03-06T04:49:02;93769.09;;;-25.93;83.99
64687;BME280;51113;53.646;-113.674;2024-03-06T04:51:31;93777.47;;;-25.73;84.83
64687;BME280;51113;53.646;-113.674;2024-03-06T04:54:00;93770.38;;;-25.81;84.01
64687;BME280;51113;53.646;-113.674;2024-03-06T04:56:28;93771.47;;;-25.91;83.75
64687;BME280;51113;53.646;-113.674;2024-03-06T04:58:57;93773.31;;;-25.98;83.31
64687;BME280;51113;53.646;-113.674;2024-03-06T05:01:31;93760.81;;;-25.88;84.43
64687;BME280;51113;53.646;-113.674;2024-03-06T05:03:59;93771.53;;;-25.93;83.85
64687;BME280;51113;53.646;-113.674;2024-03-06T05:06:44;93770.06;;;-25.98;83.88
64687;BME280;51113;53.646;-113.674;2024-03-06T05:09:29;93762.91;;;-26.04;83.70
64687;BME280;51113;53.646;-113.674;2024-03-06T05:12:13;93773.22;;;-25.95;84.08
64687;BME280;51113;53.646;-113.674;2024-03-06T05:14:58;93763.63;;;-25.73;84.96
64687;BME280;51113;53.646;-113.674;2024-03-06T05:17:43;93763.97;;;-25.85;84.06
64687;BME280;51113;53.646;-113.674;2024-03-06T05:20:28;93772.91;;;-25.84;84.25
64687;BME280;51113;53.646;-113.674;2024-03-06T05:23:15;93774.00;;;-25.94;83.55
64687;BME280;51113;53.646;-113.674;2024-03-06T05:26:02;93773.00;;;-25.87;83.99
64687;BME280;51113;53.646;-113.674;2024-03-06T05:28:46;93767.38;;;-25.90;84.26
64687;BME280;51113;53.646;-113.674;2024-03-06T05:31:31;93775.78;;;-25.99;83.55
64687;BME280;51113;53.646;-113.674;2024-03-06T05:34:16;93768.72;;;-26.08;83.14
64687;BME280;51113;53.646;-113.674;2024-03-06T05:37:02;93739.34;;;-26.35;83.68
64687;BME280;51113;53.646;-113.674;2024-03-06T05:39:48;93769.78;;;-26.17;83.17
64687;BME280;51113;53.646;-113.674;2024-03-06T05:42:33;93766.88;;;-26.30;82.23
64687;BME280;51113;53.646;-113.674;2024-03-06T05:45:18;93770.13;;;-26.29;82.92
64687;BME280;51113;53.646;-113.674;2024-03-06T05:48:03;93769.97;;;-25.95;84.22
64687;BME280;51113;53.646;-113.674;2024-03-06T05:50:48;93771.09;;;-25.77;85.16
64687;BME280;51113;53.646;-113.674;2024-03-06T05:53:39;93764.31;;;-25.69;85.57
64687;BME280;51113;53.646;-113.674;2024-03-06T05:56:26;93734.53;;;-26.10;84.24
64687;BME280;51113;53.646;-113.674;2024-03-06T05:59:11;93766.81;;;-25.99;83.93
64687;BME280;51113;53.646;-113.674;2024-03-06T06:01:40;93778.50;;;-26.08;83.36
64687;BME280;51113;53.646;-113.674;2024-03-06T06:04:09;93770.13;;;-26.29;83.99
64687;BME280;51113;53.646;-113.674;2024-03-06T06:06:37;93770.47;;;-26.72;84.54
64687;BME280;51113;53.646;-113.674;2024-03-06T06:09:07;93762.03;;;-26.92;83.59
64687;BME280;51113;53.646;-113.674;2024-03-06T06:11:44;93771.75;;;-26.90;83.34
64687;BME280;51113;53.646;-113.674;2024-03-06T06:14:13;93770.44;;;-27.02;81.97
64687;BME280;51113;53.646;-113.674;2024-03-06T06:16:42;93779.09;;;-27.22;81.63
64687;BME280;51113;53.646;-113.674;2024-03-06T06:19:10;93782.88;;;-27.11;82.06
64687;BME280;51113;53.646;-113.674;2024-03-06T06:21:39;93781.06;;;-27.03;82.74
64687;BME280;51113;53.646;-113.674;2024-03-06T06:24:08;93782.16;;;-27.14;82.25
64687;BME280;51113;53.646;-113.674;2024-03-06T06:26:37;93774.75;;;-27.11;83.18
64687;BME280;51113;53.646;-113.674;2024-03-06T06:29:06;93789.09;;;-26.99;83.81
64687;BME280;51113;53.646;-113.674;2024-03-06T06:31:34;93772.84;;;-27.00;84.05
64687;BME280;51113;53.646;-113.674;2024-03-06T06:34:03;93777.22;;;-27.13;82.53
64687;BME280;51113;53.646;-113.674;2024-03-06T06:36:32;93782.72;;;-27.05;82.87
64687;BME280;51113;53.646;-113.674;2024-03-06T06:39:00;93781.09;;;-27.04;82.94
64687;BME280;51113;53.646;-113.674;2024-03-06T06:41:31;93782.63;;;-27.00;82.50
64687;BME280;51113;53.646;-113.674;2024-03-06T06:44:00;93771.25;;;-27.01;83.12
64687;BME280;51113;53.646;-113.674;2024-03-06T06:46:30;93785.97;;;-27.04;82.81
64687;BME280;51113;53.646;-113.674;2024-03-06T06:48:59;93776.94;;;-27.01;82.96
64687;BME280;51113;53.646;-113.674;2024-03-06T06:51:27;93787.50;;;-27.00;82.52
64687;BME280;51113;53.646;-113.674;2024-03-06T06:53:56;93772.19;;;-27.07;82.58
64687;BME280;51113;53.646;-113.674;2024-03-06T06:56:27;93779.72;;;-27.14;82.38
64687;BME280;51113;53.646;-113.674;2024-03-06T06:58:56;93777.91;;;-27.08;82.84
64687;BME280;51113;53.646;-113.674;2024-03-06T07:01:24;93781.28;;;-27.12;82.41
64687;BME280;51113;53.646;-113.674;2024-03-06T07:03:53;93771.53;;;-27.12;82.68
64687;BME280;51113;53.646;-113.674;2024-03-06T07:06:22;93775.59;;;-27.12;82.31
64687;BME280;51113;53.646;-113.674;2024-03-06T07:08:51;93773.16;;;-26.81;84.45
64687;BME280;51113;53.646;-113.674;2024-03-06T07:11:20;93774.88;;;-26.85;83.36
64687;BME280;51113;53.646;-113.674;2024-03-06T07:13:50;93768.81;;;-27.01;82.92
64687;BME280;51113;53.646;-113.674;2024-03-06T07:16:19;93782.63;;;-27.00;82.94
64687;BME280;51113;53.646;-113.674;2024-03-06T07:18:48;93785.72;;;-26.95;83.49
64687;BME280;51113;53.646;-113.674;2024-03-06T07:21:16;93791.75;;;-27.08;82.45
64687;BME280;51113;53.646;-113.674;2024-03-06T07:23:46;93790.13;;;-27.08;82.63
64687;BME280;51113;53.646;-113.674;2024-03-06T07:26:15;93797.44;;;-27.08;83.03
64687;BME280;51113;53.646;-113.674;2024-03-06T07:28:43;93807.13;;;-27.05;83.20
64687;BME280;51113;53.646;-113.674;2024-03-06T07:31:12;93798.72;;;-26.95;84.29
64687;BME280;51113;53.646;-113.674;2024-03-06T07:33:41;93807.75;;;-26.97;84.78
64687;BME280;51113;53.646;-113.674;2024-03-06T07:36:10;93783.50;;;-27.03;84.97
64687;BME280;51113;53.646;-113.674;2024-03-06T07:38:38;93796.03;;;-27.16;83.26
64687;BME280;51113;53.646;-113.674;2024-03-06T07:41:07;93784.22;;;-27.33;82.45
64687;BME280;51113;53.646;-113.674;2024-03-06T07:43:36;93793.75;;;-27.24;82.91
64687;BME280;51113;53.646;-113.674;2024-03-06T07:46:06;93797.16;;;-27.30;82.57
64687;BME280;51113;53.646;-113.674;2024-03-06T07:48:41;93789.94;;;-27.34;82.47
64687;BME280;51113;53.646;-113.674;2024-03-06T07:51:10;93798.06;;;-27.34;82.57
64687;BME280;51113;53.646;-113.674;2024-03-06T07:53:38;93789.09;;;-27.33;82.32
64687;BME280;51113;53.646;-113.674;2024-03-06T07:56:10;93786.88;;;-27.42;82.04
64687;BME280;51113;53.646;-113.674;2024-03-06T07:58:42;93793.47;;;-27.46;81.71
64687;BME280;51113;53.646;-113.674;2024-03-06T08:01:10;93791.69;;;-27.39;81.77
64687;BME280;51113;53.646;-113.674;2024-03-06T08:03:39;93788.59;;;-27.46;81.90
64687;BME280;51113;53.646;-113.674;2024-03-06T08:06:09;93787.59;;;-27.39;82.43
64687;BME280;51113;53.646;-113.674;2024-03-06T08:08:40;93794.88;;;-27.37;82.55
64687;BME280;51113;53.646;-113.674;2024-03-06T08:11:10;93797.19;;;-27.31;83.45
64687;BME280;51113;53.646;-113.674;2024-03-06T08:13:39;93797.94;;;-27.29;83.20
64687;BME280;51113;53.646;-113.674;2024-03-06T08:16:08;93803.59;;;-27.27;83.08
64687;BME280;51113;53.646;-113.674;2024-03-06T08:18:37;93791.53;;;-27.33;82.84
64687;BME280;51113;53.646;-113.674;2024-03-06T08:21:05;93790.84;;;-27.38;82.81
64687;BME280;51113;53.646;-113.674;2024-03-06T08:23:35;93786.03;;;-27.41;82.63
64687;BME280;51113;53.646;-113.674;2024-03-06T08:26:03;93780.03;;;-27.28;83.38
64687;BME280;51113;53.646;-113.674;2024-03-06T08:28:32;93795.63;;;-27.34;82.66
64687;BME280;51113;53.646;-113.674;2024-03-06T08:31:00;93791.91;;;-27.48;81.91
64687;BME280;51113;53.646;-113.674;2024-03-06T08:33:29;93778.78;;;-27.78;81.08
64687;BME280;51113;53.646;-113.674;2024-03-06T08:35:58;93796.50;;;-27.72;80.49
64687;BME280;51113;53.646;-113.674;2024-03-06T08:38:27;93790.03;;;-27.73;80.92
64687;BME280;51113;53.646;-113.674;2024-03-06T08:40:55;93785.56;;;-27.91;80.44
64687;BME280;51113;53.646;-113.674;2024-03-06T08:43:24;93800.78;;;-27.81;80.89
64687;BME280;51113;53.646;-113.674;2024-03-06T08:45:54;93799.19;;;-27.82;81.38
64687;BME280;51113;53.646;-113.674;2024-03-06T08:48:23;93798.31;;;-27.80;81.37
64687;BME280;51113;53.646;-113.674;2024-03-06T08:50:52;93809.63;;;-27.77;81.60
64687;BME280;51113;53.646;-113.674;2024-03-06T08:53:21;93805.38;;;-27.68;83.06
64687;BME280;51113;53.646;-113.674;2024-03-06T08:55:49;93804.78;;;-27.79;82.85
64687;BME280;51113;53.646;-113.674;2024-03-06T08:58:18;93807.47;;;-27.89;82.68
64687;BME280;51113;53.646;-113.674;2024-03-06T09:00:48;93802.06;;;-28.04;82.03
64687;BME280;51113;53.646;-113.674;2024-03-06T09:03:17;93804.03;;;-28.21;81.40
64687;BME280;51113;53.646;-113.674;2024-03-06T09:05:46;93800.03;;;-28.22;81.80
64687;BME280;51113;53.646;-113.674;2024-03-06T09:08:14;93797.75;;;-28.30;81.02
64687;BME280;51113;53.646;-113.674;2024-03-06T09:10:43;93795.75;;;-28.51;79.59
64687;BME280;51113;53.646;-113.674;2024-03-06T09:13:12;93798.13;;;-28.48;80.40
64687;BME280;51113;53.646;-113.674;2024-03-06T09:15:40;93786.09;;;-28.55;80.07
64687;BME280;51113;53.646;-113.674;2024-03-06T09:18:09;93790.03;;;-28.50;80.58
64687;BME280;51113;53.646;-113.674;2024-03-06T09:20:38;93794.09;;;-28.50;80.13
64687;BME280;51113;53.646;-113.674;2024-03-06T09:23:07;93786.84;;;-28.52;80.65
64687;BME280;51113;53.646;-113.674;2024-03-06T09:25:35;93768.38;;;-28.62;80.21
64687;BME280;51113;53.646;-113.674;2024-03-06T09:28:04;93789.16;;;-28.46;80.33
64687;BME280;51113;53.646;-113.674;2024-03-06T09:30:33;93794.63;;;-28.36;80.84
64687;BME280;51113;53.646;-113.674;2024-03-06T09:33:02;93799.34;;;-28.29;81.08
64687;BME280;51113;53.646;-113.674;2024-03-06T09:35:31;93793.66;;;-28.28;81.02
64687;BME280;51113;53.646;-113.674;2024-03-06T09:38:00;93796.09;;;-28.28;80.43
64687;BME280;51113;53.646;-113.674;2024-03-06T09:40:30;93793.09;;;-28.40;80.29
64687;BME280;51113;53.646;-113.674;2024-03-06T09:42:59;93799.53;;;-28.38;80.23
64687;BME280;51113;53.646;-113.674;2024-03-06T09:45:28;93799.63;;;-28.42;80.41
64687;BME280;51113;53.646;-113.674;2024-03-06T09:47:56;93765.88;;;-28.59;80.58
64687;BME280;51113;53.646;-113.674;2024-03-06T09:50:25;93802.00;;;-28.39;80.52
64687;BME280;51113;53.646;-113.674;2024-03-06T09:52:55;93795.53;;;-28.40;80.68
64687;BME280;51113;53.646;-113.674;2024-03-06T09:55:25;93789.25;;;-28.50;79.97
64687;BME280;51113;53.646;-113.674;2024-03-06T09:57:54;93782.84;;;-28.56;80.36
64687;BME280;51113;53.646;-113.674;2024-03-06T10:00:23;93789.25;;;-28.52;79.89
64687;BME280;51113;53.646;-113.674;2024-03-06T10:02:59;93792.53;;;-28.53;80.10
64687;BME280;51113;53.646;-113.674;2024-03-06T10:05:28;93786.91;;;-28.57;79.54
64687;BME280;51113;53.646;-113.674;2024-03-06T10:07:58;93788.50;;;-28.54;79.58
64687;BME280;51113;53.646;-113.674;2024-03-06T10:10:27;93782.78;;;-28.53;80.54
64687;BME280;51113;53.646;-113.674;2024-03-06T10:12:56;93766.69;;;-28.59;80.94
64687;BME280;51113;53.646;-113.674;2024-03-06T10:15:26;93764.41;;;-28.66;81.09
64687;BME280;51113;53.646;-113.674;2024-03-06T10:18:19;93780.34;;;-28.51;80.88
64687;BME280;51113;53.646;-113.674;2024-03-06T10:20:48;93777.97;;;-28.54;81.08
64687;BME280;51113;53.646;-113.674;2024-03-06T10:23:18;93770.81;;;-28.62;80.44
64687;BME280;51113;53.646;-113.674;2024-03-06T10:25:50;93769.16;;;-28.60;80.52
64687;BME280;51113;53.646;-113.674;2024-03-06T10:28:22;93768.84;;;-28.45;81.74
64687;BME280;51113;53.646;-113.674;2024-03-06T10:30:51;93774.72;;;-28.55;80.79
64687;BME280;51113;53.646;-113.674;2024-03-06T10:33:20;93766.78;;;-28.65;79.98
64687;BME280;51113;53.646;-113.674;2024-03-06T10:35:49;93758.81;;;-28.71;79.75
64687;BME280;51113;53.646;-113.674;2024-03-06T10:38:20;93761.38;;;-28.77;79.94
64687;BME280;51113;53.646;-113.674;2024-03-06T10:40:51;93763.75;;;-28.76;79.46
64687;BME280;51113;53.646;-113.674;2024-03-06T10:43:21;93768.00;;;-28.84;79.91
64687;BME280;51113;53.646;-113.674;2024-03-06T10:45:57;93761.53;;;-28.85;79.61
64687;BME280;51113;53.646;-113.674;2024-03-06T10:48:29;93739.00;;;-28.95;79.57
64687;BME280;51113;53.646;-113.674;2024-03-06T10:50:59;93753.22;;;-28.76;80.78
64687;BME280;51113;53.646;-113.674;2024-03-06T10:53:28;93754.84;;;-28.75;80.44
64687;BME280;51113;53.646;-113.674;2024-03-06T10:55:58;93758.34;;;-28.87;79.19
64687;BME280;51113;53.646;-113.674;2024-03-06T10:58:29;93767.13;;;-28.81;79.52
64687;BME280;51113;53.646;-113.674;2024-03-06T11:00:59;93764.63;;;-28.78;79.75
64687;BME280;51113;53.646;-113.674;2024-03-06T11:03:28;93755.66;;;-28.76;80.13
64687;BME280;51113;53.646;-113.674;2024-03-06T11:05:59;93762.16;;;-28.77;80.07
64687;BME280;51113;53.646;-113.674;2024-03-06T11:08:31;93751.00;;;-28.85;80.02
64687;BME280;51113;53.646;-113.674;2024-03-06T11:11:20;93764.75;;;-28.83;79.91
64687;BME280;51113;53.646;-113.674;2024-03-06T11:13:59;93757.47;;;-28.84;79.95
64687;BME280;51113;53.646;-113.674;2024-03-06T11:16:29;93735.81;;;-28.97;80.14
64687;BME280;51113;53.646;-113.674;2024-03-06T11:19:07;93737.44;;;-28.97;79.74
64687;BME280;51113;53.646;-113.674;2024-03-06T11:21:46;93744.06;;;-29.05;79.64
64687;BME280;51113;53.646;-113.674;2024-03-06T11:24:22;93735.81;;;-28.97;80.65
64687;BME280;51113;53.646;-113.674;2024-03-06T11:26:55;93744.72;;;-28.96;80.52
64687;BME280;51113;53.646;-113.674;2024-03-06T11:29:27;93747.13;;;-28.96;80.15
64687;BME280;51113;53.646;-113.674;2024-03-06T11:32:07;93746.25;;;-28.92;80.79
64687;BME280;51113;53.646;-113.674;2024-03-06T11:34:37;93752.81;;;-28.95;80.20
64687;BME280;51113;53.646;-113.674;2024-03-06T11:37:07;93753.28;;;-29.23;78.84
64687;BME280;51113;53.646;-113.674;2024-03-06T11:39:39;93755.13;;;-29.35;78.46
64687;BME280;51113;53.646;-113.674;2024-03-06T11:42:09;93748.50;;;-29.27;79.50
64687;BME280;51113;53.646;-113.674;2024-03-06T11:44:52;93754.91;;;-29.23;79.28
64687;BME280;51113;53.646;-113.674;2024-03-06T11:47:23;93746.25;;;-29.38;78.68
64687;BME280;51113;53.646;-113.674;2024-03-06T11:49:52;93751.78;;;-29.28;79.00
64687;BME280;51113;53.646;-113.674;2024-03-06T11:52:22;93749.25;;;-29.24;79.40
64687;BME280;51113;53.646;-113.674;2024-03-06T11:54:51;93756.53;;;-29.22;79.42
64687;BME280;51113;53.646;-113.674;2024-03-06T11:57:21;93742.78;;;-29.23;79.63
64687;BME280;51113;53.646;-113.674;2024-03-06T11:59:52;93750.88;;;-29.24;79.46
64687;BME280;51113;53.646;-113.674;2024-03-06T12:02:21;93737.72;;;-29.12;80.21
64687;BME280;51113;53.646;-113.674;2024-03-06T12:04:50;93748.16;;;-28.66;82.69
64687;BME280;51113;53.646;-113.674;2024-03-06T12:07:19;93743.94;;;-28.19;84.27
64687;BME280;51113;53.646;-113.674;2024-03-06T12:09:48;93743.22;;;-28.22;83.49
64687;BME280;51113;53.646;-113.674;2024-03-06T12:12:17;93743.25;;;-28.24;83.04
64687;BME280;51113;53.646;-113.674;2024-03-06T12:14:58;93744.38;;;-28.39;80.92
64687;BME280;51113;53.646;-113.674;2024-03-06T12:17:28;93744.31;;;-28.36;81.82
64687;BME280;51113;53.646;-113.674;2024-03-06T12:19:57;93733.53;;;-28.24;82.16
64687;BME280;51113;53.646;-113.674;2024-03-06T12:22:26;93740.38;;;-28.04;84.04
64687;BME280;51113;53.646;-113.674;2024-03-06T12:25:01;93749.19;;;-27.99;84.25
64687;BME280;51113;53.646;-113.674;2024-03-06T12:27:29;93748.81;;;-28.19;81.96
64687;BME280;51113;53.646;-113.674;2024-03-06T12:30:01;93744.91;;;-28.25;81.57
64687;BME280;51113;53.646;-113.674;2024-03-06T12:32:33;93750.69;;;-28.30;81.38
64687;BME280;51113;53.646;-113.674;2024-03-06T12:35:02;93749.91;;;-28.31;81.77
64687;BME280;51113;53.646;-113.674;2024-03-06T12:37:32;93750.75;;;-28.33;81.78